createdAt,value
2019-05-07T00:08:32.299Z,81.60
2019-05-07T00:18:35.389Z,81.64
2019-05-07T00:28:38.339Z,81.87
2019-05-07T00:38:44.160Z,81.53
2019-05-07T00:48:47.152Z,82.20
2019-05-07T00:58:52.517Z,83.45
2019-05-07T01:08:55.004Z,84.10
2019-05-07T01:18:57.976Z,84.80
2019-05-07T01:29:02.967Z,86.04
2019-05-07T01:39:06.570Z,86.86
2019-05-07T01:49:09.628Z,87.24
2019-05-07T01:59:12.610Z,88.15
2019-05-07T02:09:28.709Z,88.97
2019-05-07T02:19:32.950Z,89.38
2019-05-07T02:29:38.178Z,91.29
2019-05-07T02:39:49.621Z,90.99
2019-05-07T02:49:57.266Z,91.39
2019-05-07T03:00:04.052Z,91.15
2019-05-07T03:10:05.984Z,91.15
2019-05-07T03:20:14.016Z,91.17
2019-05-07T03:30:45.598Z,91.35
2019-05-07T03:40:47.893Z,91.38
2019-05-07T03:50:52.803Z,91.36
2019-05-07T04:00:55.731Z,92.62
2019-05-07T04:10:58.684Z,89.21
2019-05-07T04:21:03.707Z,88.42
2019-05-07T04:31:06.594Z,86.27
2019-05-07T04:41:09.649Z,82.42
2019-05-07T04:51:15.048Z,79.35
2019-05-07T05:01:19.946Z,79.87
2019-05-07T05:11:23.714Z,80.27
2019-05-07T05:21:59.077Z,73.62
2019-05-07T05:32:02.403Z,73.14
2019-05-07T05:42:14.670Z,67.96
2019-05-07T05:52:32.846Z,71.02
2019-05-07T06:02:54.747Z,50.40
2019-05-07T06:13:09.879Z,36.99
2019-05-07T06:23:27.985Z,35.89
2019-05-07T06:33:32.415Z,28.78
2019-05-07T06:43:43.357Z,24.27
2019-05-07T06:53:46.328Z,22.05
2019-05-07T07:04:17.991Z,18.98
2019-05-07T07:14:22.742Z,20.13
2019-05-07T07:24:25.865Z,18.47
2019-05-07T07:34:33.293Z,19.03
2019-05-07T07:44:36.325Z,18.56
2019-05-07T07:54:39.310Z,17.05
2019-05-07T08:04:42.656Z,17.33
2019-05-07T08:14:45.778Z,17.63
2019-05-07T08:24:48.769Z,18.69
2019-05-07T08:35:03.449Z,24.93
2019-05-07T08:45:25.050Z,26.94
2019-05-07T08:55:28.185Z,24.26
2019-05-07T09:05:32.370Z,25.82
2019-05-07T09:15:35.688Z,17.94
2019-05-07T09:25:47.382Z,24.25
2019-05-07T09:35:52.843Z,28.72
2019-05-07T09:45:56.085Z,26.11
2019-05-07T09:55:59.079Z,31.78
2019-05-07T10:06:03.413Z,30.14
2019-05-07T10:16:07.746Z,34.69
2019-05-07T10:26:12.178Z,26.54
2019-05-07T10:36:15.470Z,20.18
2019-05-07T10:46:37.691Z,19.98
2019-05-07T10:56:41.905Z,29.47
2019-05-07T11:06:45.173Z,23.30
2019-05-07T11:17:07.727Z,25.08
2019-05-07T11:27:11.886Z,23.84
2019-05-07T11:37:15.080Z,22.73
2019-05-07T11:47:24.653Z,21.07
2019-05-07T11:57:27.644Z,20.93
2019-05-07T12:07:32.616Z,20.58
2019-05-07T12:17:35.646Z,21.68
2019-05-07T12:27:39.166Z,23.73
2019-05-07T12:37:42.825Z,29.32
2019-05-07T12:47:47.134Z,29.21
2019-05-07T12:57:51.874Z,31.66
2019-05-07T13:07:55.044Z,36.53
2019-05-07T13:17:57.996Z,34.16
2019-05-07T13:28:02.677Z,34.58
2019-05-07T13:38:24.140Z,36.52
2019-05-07T13:48:27.295Z,36.00
2019-05-07T13:58:32.745Z,33.08
2019-05-07T14:08:38.010Z,35.30
2019-05-07T14:18:41.002Z,33.96
2019-05-07T14:28:43.971Z,37.75
2019-05-07T14:38:48.461Z,36.92
2019-05-07T14:48:52.080Z,35.99
2019-05-07T14:58:55.735Z,39.51
2019-05-07T15:08:58.831Z,34.49
2019-05-07T15:19:02.558Z,33.88
2019-05-07T15:29:13.368Z,37.94
2019-05-07T15:39:16.401Z,32.70
2019-05-07T15:49:21.545Z,34.92
2019-05-07T15:59:24.543Z,37.44
2019-05-07T16:09:42.642Z,37.13
2019-05-07T16:19:47.583Z,34.93
2019-05-07T16:29:52.507Z,36.02
2019-05-07T16:39:55.487Z,37.23
2019-05-07T16:49:59.260Z,36.69
2019-05-07T17:00:03.228Z,34.25
2019-05-07T17:10:06.660Z,35.25
2019-05-07T17:20:12.688Z,38.24
2019-05-07T17:30:16.041Z,36.82
2019-05-07T17:40:19.109Z,35.76
2019-05-07T17:50:26.953Z,38.85
2019-05-07T18:00:30.082Z,38.93
2019-05-07T18:10:35.206Z,40.18
2019-05-07T18:20:38.427Z,44.36
2019-05-07T18:30:41.560Z,48.42
2019-05-07T18:40:44.594Z,49.92
2019-05-07T18:50:47.587Z,51.60
2019-05-07T19:00:54.286Z,54.11
2019-05-07T19:10:57.681Z,58.74
2019-05-07T19:21:00.788Z,56.61
2019-05-07T19:31:05.111Z,61.50
2019-05-07T19:41:12.119Z,67.84
2019-05-07T19:51:14.988Z,63.82
2019-05-07T20:01:22.829Z,64.79
2019-05-07T20:11:37.406Z,61.52
2019-05-07T20:21:40.478Z,67.01
2019-05-07T20:31:43.508Z,67.92
2019-05-07T20:41:46.515Z,61.60
2019-05-07T20:51:49.539Z,64.19
2019-05-07T21:01:52.771Z,61.99
2019-05-07T21:11:55.832Z,63.11
2019-05-07T21:21:58.832Z,59.96
2019-05-07T21:32:03.261Z,64.56
2019-05-07T21:42:06.573Z,68.58
2019-05-07T21:52:09.514Z,67.07
2019-05-07T22:02:18.278Z,71.73
2019-05-07T22:12:22.580Z,70.15
2019-05-07T22:22:25.726Z,69.04
2019-05-07T22:32:36.734Z,67.19
2019-05-07T22:42:39.744Z,70.63
2019-05-07T22:52:42.805Z,71.79
2019-05-07T23:02:45.799Z,72.76
2019-05-07T23:12:48.771Z,71.65
2019-05-07T23:22:52.077Z,74.70
2019-05-07T23:32:55.179Z,71.45
2019-05-07T23:43:02.897Z,69.58
2019-05-07T23:53:05.797Z,67.78
